sensor_id;sensor_type;location;lat;lon;timestamp;P1;durP1;ratioP1;P2;durP2;ratioP2
23052;SDS011;11694;-36.632;-64.318;2022-08-11T00:00:35;5.80;;;2.20;;
23052;SDS011;11694;-36.632;-64.318;2022-08-11T00:03:05;5.90;;;2.30;;
23052;SDS011;11694;-36.632;-64.318;2022-08-11T00:05:35;4.63;;;1.53;;
23052;SDS011;11694;-36.632;-64.318;2022-08-11T00:08:21;3.83;;;1.40;;
23052;SDS011;11694;-36.632;-64.318;2022-08-11T00:10:51;11.10;;;1.70;;
23052;SDS011;11694;-36.632;-64.318;2022-08-11T00:13:20;3.43;;;1.60;;
23052;SDS011;11694;-36.632;-64.318;2022-08-11T00:15:55;8.07;;;1.37;;
23052;SDS011;11694;-36.632;-64.318;2022-08-11T00:18:23;1.67;;;1.10;;
23052;SDS011;11694;-36.632;-64.318;2022-08-11T00:20:50;7.27;;;1.37;;
23052;SDS011;11694;-36.632;-64.318;2022-08-11T00:23:25;3.87;;;1.17;;
23052;SDS011;11694;-36.632;-64.318;2022-08-11T00:25:53;2.47;;;1.40;;
23052;SDS011;11694;-36.632;-64.318;2022-08-11T00:30:55;4.20;;;0.93;;
23052;SDS011;11694;-36.632;-64.318;2022-08-11T00:33:34;5.27;;;1.10;;
23052;SDS011;11694;-36.632;-64.318;2022-08-11T00:36:04;5.20;;;1.10;;
23052;SDS011;11694;-36.632;-64.318;2022-08-11T00:38:35;5.43;;;1.10;;
23052;SDS011;11694;-36.632;-64.318;2022-08-11T00:46:34;4.30;;;1.10;;
23052;SDS011;11694;-36.632;-64.318;2022-08-11T00:52:53;5.07;;;1.10;;
23052;SDS011;11694;-36.632;-64.318;2022-08-11T01:03:58;6.33;;;1.50;;
23052;SDS011;11694;-36.632;-64.318;2022-08-11T01:21:04;5.20;;;1.50;;
23052;SDS011;11694;-36.632;-64.318;2022-08-11T01:23:47;7.87;;;2.07;;
23052;SDS011;11694;-36.632;-64.318;2022-08-11T01:58:43;1.67;;;1.30;;
23052;SDS011;11694;-36.632;-64.318;2022-08-11T02:09:59;6.13;;;1.50;;
23052;SDS011;11694;-36.632;-64.318;2022-08-11T02:12:56;4.80;;;1.57;;
23052;SDS011;11694;-36.632;-64.318;2022-08-11T02:15:54;2.57;;;1.13;;
23052;SDS011;11694;-36.632;-64.318;2022-08-11T02:19:00;1.70;;;1.10;;
23052;SDS011;11694;-36.632;-64.318;2022-08-11T02:21:59;6.20;;;1.30;;
23052;SDS011;11694;-36.632;-64.318;2022-08-11T02:25:08;2.47;;;1.30;;
23052;SDS011;11694;-36.632;-64.318;2022-08-11T02:28:04;3.73;;;1.50;;
23052;SDS011;11694;-36.632;-64.318;2022-08-11T02:30:39;7.43;;;1.47;;
23052;SDS011;11694;-36.632;-64.318;2022-08-11T02:33:47;5.70;;;1.60;;
23052;SDS011;11694;-36.632;-64.318;2022-08-11T02:36:21;3.17;;;1.50;;
23052;SDS011;11694;-36.632;-64.318;2022-08-11T02:39:03;4.67;;;1.50;;
23052;SDS011;11694;-36.632;-64.318;2022-08-11T03:00:25;4.30;;;1.13;;
23052;SDS011;11694;-36.632;-64.318;2022-08-11T03:08:46;5.30;;;1.43;;
23052;SDS011;11694;-36.632;-64.318;2022-08-11T03:11:41;5.93;;;1.70;;
23052;SDS011;11694;-36.632;-64.318;2022-08-11T03:14:37;1.93;;;0.83;;
23052;SDS011;11694;-36.632;-64.318;2022-08-11T03:17:52;2.57;;;1.03;;
23052;SDS011;11694;-36.632;-64.318;2022-08-11T03:23:13;1.17;;;0.83;;
23052;SDS011;11694;-36.632;-64.318;2022-08-11T03:26:00;4.33;;;1.00;;
23052;SDS011;11694;-36.632;-64.318;2022-08-11T03:29:18;2.23;;;0.97;;
23052;SDS011;11694;-36.632;-64.318;2022-08-11T03:31:32;3.40;;;0.80;;
23052;SDS011;11694;-36.632;-64.318;2022-08-11T03:34:15;4.43;;;1.17;;
23052;SDS011;11694;-36.632;-64.318;2022-08-11T03:43:27;1.70;;;0.63;;
23052;SDS011;11694;-36.632;-64.318;2022-08-11T03:46:10;3.17;;;0.73;;
23052;SDS011;11694;-36.632;-64.318;2022-08-11T04:00:12;1.43;;;0.93;;
23052;SDS011;11694;-36.632;-64.318;2022-08-11T04:20:01;2.40;;;0.73;;
23052;SDS011;11694;-36.632;-64.318;2022-08-11T04:22:52;3.13;;;1.03;;
23052;SDS011;11694;-36.632;-64.318;2022-08-11T04:28:48;1.73;;;0.57;;
23052;SDS011;11694;-36.632;-64.318;2022-08-11T04:43:01;1.40;;;0.70;;
23052;SDS011;11694;-36.632;-64.318;2022-08-11T04:52:20;3.90;;;1.00;;
23052;SDS011;11694;-36.632;-64.318;2022-08-11T04:58:46;1.07;;;0.80;;
23052;SDS011;11694;-36.632;-64.318;2022-08-11T05:13:27;3.53;;;0.93;;
23052;SDS011;11694;-36.632;-64.318;2022-08-11T05:16:34;2.13;;;0.70;;
23052;SDS011;11694;-36.632;-64.318;2022-08-11T05:19:25;4.20;;;0.90;;
23052;SDS011;11694;-36.632;-64.318;2022-08-11T05:22:11;1.90;;;0.90;;
23052;SDS011;11694;-36.632;-64.318;2022-08-11T05:25:08;1.50;;;0.70;;
23052;SDS011;11694;-36.632;-64.318;2022-08-11T05:28:11;2.47;;;0.80;;
23052;SDS011;11694;-36.632;-64.318;2022-08-11T05:31:30;2.47;;;0.83;;
23052;SDS011;11694;-36.632;-64.318;2022-08-11T05:34:31;1.77;;;0.87;;
23052;SDS011;11694;-36.632;-64.318;2022-08-11T05:37:40;1.33;;;0.90;;
23052;SDS011;11694;-36.632;-64.318;2022-08-11T05:40:27;2.60;;;1.00;;
23052;SDS011;11694;-36.632;-64.318;2022-08-11T05:43:14;2.13;;;0.90;;
23052;SDS011;11694;-36.632;-64.318;2022-08-11T05:46:03;3.07;;;0.80;;
23052;SDS011;11694;-36.632;-64.318;2022-08-11T05:48:50;2.83;;;1.00;;
23052;SDS011;11694;-36.632;-64.318;2022-08-11T05:51:40;6.17;;;1.40;;
23052;SDS011;11694;-36.632;-64.318;2022-08-11T05:54:27;2.30;;;1.10;;
23052;SDS011;11694;-36.632;-64.318;2022-08-11T05:57:20;3.47;;;1.47;;
23052;SDS011;11694;-36.632;-64.318;2022-08-11T05:59:59;3.93;;;2.10;;
23052;SDS011;11694;-36.632;-64.318;2022-08-11T06:05:35;5.43;;;2.13;;
23052;SDS011;11694;-36.632;-64.318;2022-08-11T06:08:06;7.80;;;2.33;;
23052;SDS011;11694;-36.632;-64.318;2022-08-11T06:10:38;5.30;;;2.17;;
23052;SDS011;11694;-36.632;-64.318;2022-08-11T06:13:07;4.53;;;1.77;;
23052;SDS011;11694;-36.632;-64.318;2022-08-11T06:15:48;3.53;;;1.67;;
23052;SDS011;11694;-36.632;-64.318;2022-08-11T06:18:17;3.77;;;1.43;;
23052;SDS011;11694;-36.632;-64.318;2022-08-11T06:20:51;2.53;;;1.60;;
23052;SDS011;11694;-36.632;-64.318;2022-08-11T06:23:23;4.00;;;1.80;;
23052;SDS011;11694;-36.632;-64.318;2022-08-11T06:25:55;4.13;;;1.93;;
23052;SDS011;11694;-36.632;-64.318;2022-08-11T06:28:32;8.30;;;2.03;;
23052;SDS011;11694;-36.632;-64.318;2022-08-11T06:31:11;5.13;;;2.07;;
23052;SDS011;11694;-36.632;-64.318;2022-08-11T06:39:57;2.70;;;1.70;;
23052;SDS011;11694;-36.632;-64.318;2022-08-11T06:47:55;4.37;;;2.60;;
23052;SDS011;11694;-36.632;-64.318;2022-08-11T06:50:27;5.97;;;2.87;;
23052;SDS011;11694;-36.632;-64.318;2022-08-11T06:53:14;8.17;;;2.83;;
23052;SDS011;11694;-36.632;-64.318;2022-08-11T06:55:45;4.93;;;3.00;;
23052;SDS011;11694;-36.632;-64.318;2022-08-11T06:58:35;6.03;;;2.80;;
23052;SDS011;11694;-36.632;-64.318;2022-08-11T07:01:39;6.77;;;3.63;;
23052;SDS011;11694;-36.632;-64.318;2022-08-11T07:04:28;8.70;;;4.07;;
23052;SDS011;11694;-36.632;-64.318;2022-08-11T07:10:19;8.80;;;4.47;;
23052;SDS011;11694;-36.632;-64.318;2022-08-11T07:13:16;9.03;;;4.20;;
23052;SDS011;11694;-36.632;-64.318;2022-08-11T07:16:04;9.07;;;3.80;;
23052;SDS011;11694;-36.632;-64.318;2022-08-11T07:18:34;7.20;;;4.10;;
23052;SDS011;11694;-36.632;-64.318;2022-08-11T07:21:27;8.70;;;4.40;;
23052;SDS011;11694;-36.632;-64.318;2022-08-11T07:24:13;8.07;;;4.10;;
23052;SDS011;11694;-36.632;-64.318;2022-08-11T07:27:13;11.30;;;5.47;;
23052;SDS011;11694;-36.632;-64.318;2022-08-11T07:30:04;10.17;;;4.73;;
23052;SDS011;11694;-36.632;-64.318;2022-08-11T07:39:07;6.03;;;3.90;;
23052;SDS011;11694;-36.632;-64.318;2022-08-11T07:41:39;5.27;;;2.77;;
23052;SDS011;11694;-36.632;-64.318;2022-08-11T07:44:08;5.53;;;2.30;;
23052;SDS011;11694;-36.632;-64.318;2022-08-11T07:46:40;7.03;;;2.40;;
23052;SDS011;11694;-36.632;-64.318;2022-08-11T07:49:27;6.07;;;2.10;;
23052;SDS011;11694;-36.632;-64.318;2022-08-11T07:52:18;2.73;;;1.60;;
23052;SDS011;11694;-36.632;-64.318;2022-08-11T07:54:55;2.10;;;1.50;;
23052;SDS011;11694;-36.632;-64.318;2022-08-11T07:57:24;3.87;;;1.93;;
23052;SDS011;11694;-36.632;-64.318;2022-08-11T08:00:11;3.77;;;1.90;;
23052;SDS011;11694;-36.632;-64.318;2022-08-11T08:02:58;2.67;;;1.63;;
23052;SDS011;11694;-36.632;-64.318;2022-08-11T08:05:44;4.83;;;1.60;;
23052;SDS011;11694;-36.632;-64.318;2022-08-11T08:08:31;2.63;;;1.80;;
23052;SDS011;11694;-36.632;-64.318;2022-08-11T08:11:18;3.80;;;1.93;;
23052;SDS011;11694;-36.632;-64.318;2022-08-11T08:14:05;3.70;;;1.87;;
23052;SDS011;11694;-36.632;-64.318;2022-08-11T08:16:52;3.73;;;1.90;;
23052;SDS011;11694;-36.632;-64.318;2022-08-11T08:19:39;4.97;;;2.00;;
23052;SDS011;11694;-36.632;-64.318;2022-08-11T08:22:14;4.20;;;1.80;;
23052;SDS011;11694;-36.632;-64.318;2022-08-11T08:24:46;4.47;;;1.80;;
23052;SDS011;11694;-36.632;-64.318;2022-08-11T08:27:14;4.10;;;1.70;;
23052;SDS011;11694;-36.632;-64.318;2022-08-11T08:29:42;4.23;;;2.50;;
23052;SDS011;11694;-36.632;-64.318;2022-08-11T08:32:28;3.73;;;1.90;;
23052;SDS011;11694;-36.632;-64.318;2022-08-11T08:34:56;3.87;;;2.37;;
23052;SDS011;11694;-36.632;-64.318;2022-08-11T08:37:24;2.73;;;1.80;;
23052;SDS011;11694;-36.632;-64.318;2022-08-11T08:39:52;4.00;;;2.50;;
23052;SDS011;11694;-36.632;-64.318;2022-08-11T08:42:23;5.87;;;3.00;;
23052;SDS011;11694;-36.632;-64.318;2022-08-11T08:45:01;3.87;;;2.80;;
23052;SDS011;11694;-36.632;-64.318;2022-08-11T08:47:36;5.10;;;2.80;;
23052;SDS011;11694;-36.632;-64.318;2022-08-11T08:50:13;5.77;;;2.33;;
23052;SDS011;11694;-36.632;-64.318;2022-08-11T08:53:00;3.90;;;2.30;;
23052;SDS011;11694;-36.632;-64.318;2022-08-11T08:55:30;10.07;;;2.67;;
23052;SDS011;11694;-36.632;-64.318;2022-08-11T08:57:58;4.63;;;2.50;;
23052;SDS011;11694;-36.632;-64.318;2022-08-11T09:00:36;3.47;;;2.50;;
23052;SDS011;11694;-36.632;-64.318;2022-08-11T09:03:06;6.57;;;2.60;;
23052;SDS011;11694;-36.632;-64.318;2022-08-11T09:05:34;3.07;;;2.40;;
23052;SDS011;11694;-36.632;-64.318;2022-08-11T09:08:02;3.77;;;2.40;;
23052;SDS011;11694;-36.632;-64.318;2022-08-11T09:10:29;4.70;;;2.87;;
23052;SDS011;11694;-36.632;-64.318;2022-08-11T09:12:57;4.53;;;2.57;;
23052;SDS011;11694;-36.632;-64.318;2022-08-11T09:15:25;5.13;;;2.50;;
23052;SDS011;11694;-36.632;-64.318;2022-08-11T09:17:53;8.27;;;2.90;;
23052;SDS011;11694;-36.632;-64.318;2022-08-11T09:20:29;4.53;;;3.30;;
23052;SDS011;11694;-36.632;-64.318;2022-08-11T09:23:00;4.90;;;3.00;;
23052;SDS011;11694;-36.632;-64.318;2022-08-11T09:25:57;4.57;;;3.30;;
23052;SDS011;11694;-36.632;-64.318;2022-08-11T09:28:44;7.10;;;3.10;;
23052;SDS011;11694;-36.632;-64.318;2022-08-11T09:31:13;5.60;;;3.33;;
23052;SDS011;11694;-36.632;-64.318;2022-08-11T09:33:42;4.37;;;3.00;;
23052;SDS011;11694;-36.632;-64.318;2022-08-11T09:36:11;6.73;;;3.50;;
23052;SDS011;11694;-36.632;-64.318;2022-08-11T09:38:57;3.80;;;3.20;;
23052;SDS011;11694;-36.632;-64.318;2022-08-11T09:41:43;9.17;;;3.23;;
23052;SDS011;11694;-36.632;-64.318;2022-08-11T09:44:11;6.63;;;3.40;;
23052;SDS011;11694;-36.632;-64.318;2022-08-11T09:46:57;5.80;;;3.40;;
23052;SDS011;11694;-36.632;-64.318;2022-08-11T09:49:26;6.50;;;3.40;;
23052;SDS011;11694;-36.632;-64.318;2022-08-11T09:51:54;7.20;;;4.20;;
23052;SDS011;11694;-36.632;-64.318;2022-08-11T09:54:22;8.17;;;4.53;;
23052;SDS011;11694;-36.632;-64.318;2022-08-11T09:56:53;9.47;;;6.50;;
23052;SDS011;11694;-36.632;-64.318;2022-08-11T09:59:38;11.03;;;5.00;;
23052;SDS011;11694;-36.632;-64.318;2022-08-11T10:02:06;6.93;;;5.60;;
23052;SDS011;11694;-36.632;-64.318;2022-08-11T10:04:45;6.07;;;5.17;;
23052;SDS011;11694;-36.632;-64.318;2022-08-11T10:07:15;6.80;;;5.13;;
23052;SDS011;11694;-36.632;-64.318;2022-08-11T10:09:49;7.67;;;5.43;;
23052;SDS011;11694;-36.632;-64.318;2022-08-11T10:12:25;10.70;;;4.43;;
23052;SDS011;11694;-36.632;-64.318;2022-08-11T10:15:08;9.13;;;4.67;;
23052;SDS011;11694;-36.632;-64.318;2022-08-11T10:17:57;7.23;;;4.53;;
23052;SDS011;11694;-36.632;-64.318;2022-08-11T10:20:48;6.00;;;4.07;;
23052;SDS011;11694;-36.632;-64.318;2022-08-11T10:23:17;8.00;;;4.37;;
23052;SDS011;11694;-36.632;-64.318;2022-08-11T10:26:03;5.60;;;4.07;;
23052;SDS011;11694;-36.632;-64.318;2022-08-11T10:28:51;8.20;;;4.57;;
23052;SDS011;11694;-36.632;-64.318;2022-08-11T10:31:19;7.63;;;4.80;;
23052;SDS011;11694;-36.632;-64.318;2022-08-11T10:34:06;8.13;;;5.03;;
23052;SDS011;11694;-36.632;-64.318;2022-08-11T10:36:39;9.17;;;4.67;;
23052;SDS011;11694;-36.632;-64.318;2022-08-11T10:39:19;7.70;;;4.87;;
23052;SDS011;11694;-36.632;-64.318;2022-08-11T10:41:47;7.53;;;4.90;;
23052;SDS011;11694;-36.632;-64.318;2022-08-11T10:44:42;11.77;;;5.80;;
23052;SDS011;11694;-36.632;-64.318;2022-08-11T10:47:13;7.07;;;5.20;;
23052;SDS011;11694;-36.632;-64.318;2022-08-11T10:50:07;10.30;;;4.40;;
23052;SDS011;11694;-36.632;-64.318;2022-08-11T10:52:53;8.70;;;4.67;;
23052;SDS011;11694;-36.632;-64.318;2022-08-11T10:55:41;6.73;;;5.20;;
23052;SDS011;11694;-36.632;-64.318;2022-08-11T10:58:28;8.33;;;4.97;;
23052;SDS011;11694;-36.632;-64.318;2022-08-11T11:01:37;10.97;;;6.10;;
23052;SDS011;11694;-36.632;-64.318;2022-08-11T11:04:15;12.43;;;7.40;;
23052;SDS011;11694;-36.632;-64.318;2022-08-11T11:15:10;10.57;;;7.23;;
23052;SDS011;11694;-36.632;-64.318;2022-08-11T11:18:33;11.60;;;5.73;;
23052;SDS011;11694;-36.632;-64.318;2022-08-11T11:21:06;7.47;;;5.80;;
23052;SDS011;11694;-36.632;-64.318;2022-08-11T11:26:33;9.73;;;6.53;;
23052;SDS011;11694;-36.632;-64.318;2022-08-11T11:37:22;9.10;;;5.33;;
23052;SDS011;11694;-36.632;-64.318;2022-08-11T11:39:53;11.23;;;7.53;;
23052;SDS011;11694;-36.632;-64.318;2022-08-11T11:42:22;9.50;;;6.63;;
23052;SDS011;11694;-36.632;-64.318;2022-08-11T11:44:50;7.70;;;6.03;;
23052;SDS011;11694;-36.632;-64.318;2022-08-11T11:47:17;9.13;;;5.67;;
23052;SDS011;11694;-36.632;-64.318;2022-08-11T11:49:47;5.27;;;3.90;;
23052;SDS011;11694;-36.632;-64.318;2022-08-11T11:52:15;5.50;;;3.63;;
23052;SDS011;11694;-36.632;-64.318;2022-08-11T11:54:45;5.27;;;2.83;;
23052;SDS011;11694;-36.632;-64.318;2022-08-11T11:57:18;3.53;;;2.63;;
23052;SDS011;11694;-36.632;-64.318;2022-08-11T12:00:05;6.33;;;2.93;;
23052;SDS011;11694;-36.632;-64.318;2022-08-11T12:02:53;3.77;;;2.60;;
23052;SDS011;11694;-36.632;-64.318;2022-08-11T12:05:23;4.20;;;2.07;;
23052;SDS011;11694;-36.632;-64.318;2022-08-11T12:07:54;5.47;;;1.60;;
23052;SDS011;11694;-36.632;-64.318;2022-08-11T12:10:45;3.30;;;1.30;;
23052;SDS011;11694;-36.632;-64.318;2022-08-11T12:13:14;2.13;;;1.07;;
23052;SDS011;11694;-36.632;-64.318;2022-08-11T12:16:00;2.63;;;1.00;;
23052;SDS011;11694;-36.632;-64.318;2022-08-11T12:18:30;4.53;;;1.00;;
23052;SDS011;11694;-36.632;-64.318;2022-08-11T12:21:01;9.77;;;6.03;;
23052;SDS011;11694;-36.632;-64.318;2022-08-11T12:23:30;7.37;;;4.23;;
23052;SDS011;11694;-36.632;-64.318;2022-08-11T12:26:17;5.13;;;3.90;;
23052;SDS011;11694;-36.632;-64.318;2022-08-11T12:29:23;12.47;;;8.73;;
23052;SDS011;11694;-36.632;-64.318;2022-08-11T12:31:53;23.80;;;14.47;;
23052;SDS011;11694;-36.632;-64.318;2022-08-11T12:34:24;34.63;;;20.60;;
23052;SDS011;11694;-36.632;-64.318;2022-08-11T12:36:57;22.07;;;15.30;;
23052;SDS011;11694;-36.632;-64.318;2022-08-11T12:39:26;13.13;;;8.23;;
23052;SDS011;11694;-36.632;-64.318;2022-08-11T12:42:17;11.93;;;4.93;;
23052;SDS011;11694;-36.632;-64.318;2022-08-11T12:45:05;4.47;;;2.00;;
23052;SDS011;11694;-36.632;-64.318;2022-08-11T12:47:59;5.50;;;1.10;;
23052;SDS011;11694;-36.632;-64.318;2022-08-11T12:50:51;1.27;;;0.80;;
23052;SDS011;11694;-36.632;-64.318;2022-08-11T12:54:00;6.73;;;1.20;;
23052;SDS011;11694;-36.632;-64.318;2022-08-11T12:56:38;5.60;;;1.00;;
23052;SDS011;11694;-36.632;-64.318;2022-08-11T12:59:26;1.83;;;0.70;;
23052;SDS011;11694;-36.632;-64.318;2022-08-11T13:02:16;2.10;;;0.60;;
23052;SDS011;11694;-36.632;-64.318;2022-08-11T13:05:04;1.73;;;1.00;;
23052;SDS011;11694;-36.632;-64.318;2022-08-11T13:07:33;3.73;;;1.07;;
23052;SDS011;11694;-36.632;-64.318;2022-08-11T13:10:06;1.70;;;0.83;;
23052;SDS011;11694;-36.632;-64.318;2022-08-11T13:12:35;2.03;;;0.80;;
23052;SDS011;11694;-36.632;-64.318;2022-08-11T13:15:21;2.77;;;0.80;;
23052;SDS011;11694;-36.632;-64.318;2022-08-11T13:17:51;2.33;;;0.80;;
23052;SDS011;11694;-36.632;-64.318;2022-08-11T13:20:21;3.30;;;0.90;;
23052;SDS011;11694;-36.632;-64.318;2022-08-11T13:22:53;2.43;;;1.00;;
23052;SDS011;11694;-36.632;-64.318;2022-08-11T13:25:23;2.37;;;1.10;;
23052;SDS011;11694;-36.632;-64.318;2022-08-11T13:27:54;1.67;;;1.03;;
23052;SDS011;11694;-36.632;-64.318;2022-08-11T13:30:22;2.67;;;0.83;;
23052;SDS011;11694;-36.632;-64.318;2022-08-11T13:33:10;4.77;;;1.03;;
23052;SDS011;11694;-36.632;-64.318;2022-08-11T13:35:38;4.00;;;0.80;;
23052;SDS011;11694;-36.632;-64.318;2022-08-11T13:38:06;3.73;;;1.30;;
23052;SDS011;11694;-36.632;-64.318;2022-08-11T13:40:38;2.57;;;1.30;;
23052;SDS011;11694;-36.632;-64.318;2022-08-11T13:43:06;4.13;;;1.60;;
23052;SDS011;11694;-36.632;-64.318;2022-08-11T13:45:35;2.83;;;1.37;;
23052;SDS011;11694;-36.632;-64.318;2022-08-11T13:48:05;3.20;;;1.53;;
23052;SDS011;11694;-36.632;-64.318;2022-08-11T13:50:35;1.83;;;0.90;;
23052;SDS011;11694;-36.632;-64.318;2022-08-11T13:53:23;2.63;;;1.10;;
23052;SDS011;11694;-36.632;-64.318;2022-08-11T13:55:51;4.17;;;1.13;;
23052;SDS011;11694;-36.632;-64.318;2022-08-11T13:58:20;3.30;;;1.23;;
23052;SDS011;11694;-36.632;-64.318;2022-08-11T14:00:49;1.67;;;0.80;;
23052;SDS011;11694;-36.632;-64.318;2022-08-11T14:03:22;3.33;;;1.10;;
23052;SDS011;11694;-36.632;-64.318;2022-08-11T14:05:51;4.30;;;0.90;;
23052;SDS011;11694;-36.632;-64.318;2022-08-11T14:08:25;2.23;;;0.83;;
23052;SDS011;11694;-36.632;-64.318;2022-08-11T14:10:58;8.70;;;1.07;;
23052;SDS011;11694;-36.632;-64.318;2022-08-11T14:13:48;5.70;;;0.87;;
23052;SDS011;11694;-36.632;-64.318;2022-08-11T14:16:25;1.43;;;0.83;;
23052;SDS011;11694;-36.632;-64.318;2022-08-11T14:19:05;2.03;;;0.80;;
23052;SDS011;11694;-36.632;-64.318;2022-08-11T14:21:37;2.23;;;0.70;;
23052;SDS011;11694;-36.632;-64.318;2022-08-11T14:24:45;7.13;;;0.80;;
23052;SDS011;11694;-36.632;-64.318;2022-08-11T14:27:16;1.83;;;0.80;;
23052;SDS011;11694;-36.632;-64.318;2022-08-11T14:29:50;5.10;;;1.10;;
23052;SDS011;11694;-36.632;-64.318;2022-08-11T14:32:18;2.73;;;0.80;;
23052;SDS011;11694;-36.632;-64.318;2022-08-11T14:34:46;1.80;;;0.67;;
23052;SDS011;11694;-36.632;-64.318;2022-08-11T14:37:17;1.57;;;0.73;;
23052;SDS011;11694;-36.632;-64.318;2022-08-11T14:39:53;3.90;;;0.80;;
23052;SDS011;11694;-36.632;-64.318;2022-08-11T14:42:23;5.27;;;0.97;;
23052;SDS011;11694;-36.632;-64.318;2022-08-11T14:45:10;11.47;;;1.40;;
23052;SDS011;11694;-36.632;-64.318;2022-08-11T14:48:02;4.07;;;1.10;;
23052;SDS011;11694;-36.632;-64.318;2022-08-11T14:50:34;2.20;;;1.33;;
23052;SDS011;11694;-36.632;-64.318;2022-08-11T14:53:03;2.50;;;1.30;;
23052;SDS011;11694;-36.632;-64.318;2022-08-11T14:55:37;3.43;;;1.20;;
23052;SDS011;11694;-36.632;-64.318;2022-08-11T14:58:26;2.83;;;1.53;;
23052;SDS011;11694;-36.632;-64.318;2022-08-11T15:00:59;2.43;;;1.10;;
23052;SDS011;11694;-36.632;-64.318;2022-08-11T15:03:27;5.83;;;1.70;;
23052;SDS011;11694;-36.632;-64.318;2022-08-11T15:05:59;2.27;;;0.70;;
23052;SDS011;11694;-36.632;-64.318;2022-08-11T15:08:33;4.37;;;0.87;;
23052;SDS011;11694;-36.632;-64.318;2022-08-11T15:11:27;4.93;;;1.10;;
23052;SDS011;11694;-36.632;-64.318;2022-08-11T15:14:14;2.67;;;0.80;;
23052;SDS011;11694;-36.632;-64.318;2022-08-11T15:17:02;0.80;;;0.60;;
23052;SDS011;11694;-36.632;-64.318;2022-08-11T15:19:34;1.53;;;0.60;;
23052;SDS011;11694;-36.632;-64.318;2022-08-11T15:22:23;2.97;;;0.50;;
23052;SDS011;11694;-36.632;-64.318;2022-08-11T15:25:08;1.87;;;0.70;;
23052;SDS011;11694;-36.632;-64.318;2022-08-11T15:27:36;2.57;;;0.70;;
23052;SDS011;11694;-36.632;-64.318;2022-08-11T15:30:23;1.00;;;0.80;;
23052;SDS011;11694;-36.632;-64.318;2022-08-11T15:33:10;2.70;;;0.70;;
23052;SDS011;11694;-36.632;-64.318;2022-08-11T15:35:58;1.53;;;1.00;;
23052;SDS011;11694;-36.632;-64.318;2022-08-11T15:38:55;2.97;;;0.90;;
23052;SDS011;11694;-36.632;-64.318;2022-08-11T15:41:48;7.27;;;1.30;;
23052;SDS011;11694;-36.632;-64.318;2022-08-11T15:44:35;6.10;;;1.00;;
23052;SDS011;11694;-36.632;-64.318;2022-08-11T15:47:25;2.87;;;1.03;;
23052;SDS011;11694;-36.632;-64.318;2022-08-11T15:49:58;1.60;;;0.80;;
23052;SDS011;11694;-36.632;-64.318;2022-08-11T15:52:31;0.73;;;0.70;;
23052;SDS011;11694;-36.632;-64.318;2022-08-11T15:55:04;1.07;;;1.00;;
23052;SDS011;11694;-36.632;-64.318;2022-08-11T15:57:32;1.00;;;0.67;;
23052;SDS011;11694;-36.632;-64.318;2022-08-11T16:00:20;3.67;;;0.90;;
23052;SDS011;11694;-36.632;-64.318;2022-08-11T16:03:06;1.63;;;0.87;;
23052;SDS011;11694;-36.632;-64.318;2022-08-11T16:05:52;3.50;;;0.93;;
23052;SDS011;11694;-36.632;-64.318;2022-08-11T16:08:21;1.70;;;0.80;;
23052;SDS011;11694;-36.632;-64.318;2022-08-11T16:10:51;2.43;;;0.60;;
23052;SDS011;11694;-36.632;-64.318;2022-08-11T16:13:20;1.53;;;0.50;;
23052;SDS011;11694;-36.632;-64.318;2022-08-11T16:15:50;1.07;;;0.30;;
23052;SDS011;11694;-36.632;-64.318;2022-08-11T16:18:47;2.57;;;0.70;;
23052;SDS011;11694;-36.632;-64.318;2022-08-11T16:21:25;1.13;;;0.30;;
23052;SDS011;11694;-36.632;-64.318;2022-08-11T16:23:55;2.33;;;0.83;;
23052;SDS011;11694;-36.632;-64.318;2022-08-11T16:26:24;3.57;;;0.60;;
23052;SDS011;11694;-36.632;-64.318;2022-08-11T16:28:55;1.67;;;0.70;;
23052;SDS011;11694;-36.632;-64.318;2022-08-11T16:31:25;4.87;;;0.80;;
23052;SDS011;11694;-36.632;-64.318;2022-08-11T16:33:54;1.63;;;0.60;;
23052;SDS011;11694;-36.632;-64.318;2022-08-11T16:36:23;6.40;;;1.17;;
23052;SDS011;11694;-36.632;-64.318;2022-08-11T16:39:09;4.73;;;0.60;;
23052;SDS011;11694;-36.632;-64.318;2022-08-11T16:41:42;5.80;;;0.70;;
23052;SDS011;11694;-36.632;-64.318;2022-08-11T16:44:29;3.47;;;0.63;;
23052;SDS011;11694;-36.632;-64.318;2022-08-11T16:47:16;9.47;;;0.87;;
23052;SDS011;11694;-36.632;-64.318;2022-08-11T16:49:45;8.03;;;0.90;;
23052;SDS011;11694;-36.632;-64.318;2022-08-11T16:52:20;1.97;;;0.43;;
23052;SDS011;11694;-36.632;-64.318;2022-08-11T16:54:48;14.57;;;1.33;;
23052;SDS011;11694;-36.632;-64.318;2022-08-11T16:57:21;9.13;;;1.10;;
23052;SDS011;11694;-36.632;-64.318;2022-08-11T17:00:09;9.40;;;1.00;;
23052;SDS011;11694;-36.632;-64.318;2022-08-11T17:02:49;6.60;;;1.10;;
23052;SDS011;11694;-36.632;-64.318;2022-08-11T17:05:37;1.35;;;0.70;;
23052;SDS011;11694;-36.632;-64.318;2022-08-11T17:08:29;4.20;;;0.50;;
23052;SDS011;11694;-36.632;-64.318;2022-08-11T17:11:18;8.83;;;1.30;;
23052;SDS011;11694;-36.632;-64.318;2022-08-11T17:14:10;5.33;;;0.70;;
23052;SDS011;11694;-36.632;-64.318;2022-08-11T17:16:41;20.70;;;2.15;;
23052;SDS011;11694;-36.632;-64.318;2022-08-11T17:19:11;25.27;;;2.65;;
23052;SDS011;11694;-36.632;-64.318;2022-08-11T17:21:58;4.23;;;0.67;;
23052;SDS011;11694;-36.632;-64.318;2022-08-11T17:24:44;4.37;;;0.30;;
23052;SDS011;11694;-36.632;-64.318;2022-08-11T17:27:17;16.48;;;1.35;;
23052;SDS011;11694;-36.632;-64.318;2022-08-11T17:29:53;9.50;;;0.93;;
23052;SDS011;11694;-36.632;-64.318;2022-08-11T17:32:24;4.57;;;0.73;;
23052;SDS011;11694;-36.632;-64.318;2022-08-11T17:35:28;16.50;;;1.50;;
23052;SDS011;11694;-36.632;-64.318;2022-08-11T17:38:01;8.25;;;1.45;;
23052;SDS011;11694;-36.632;-64.318;2022-08-11T17:40:30;15.27;;;2.07;;
23052;SDS011;11694;-36.632;-64.318;2022-08-11T17:43:01;10.13;;;1.10;;
23052;SDS011;11694;-36.632;-64.318;2022-08-11T17:45:47;16.60;;;2.53;;
23052;SDS011;11694;-36.632;-64.318;2022-08-11T17:48:36;6.03;;;1.10;;
23052;SDS011;11694;-36.632;-64.318;2022-08-11T17:51:10;11.68;;;1.20;;
23052;SDS011;11694;-36.632;-64.318;2022-08-11T17:53:59;4.68;;;0.68;;
23052;SDS011;11694;-36.632;-64.318;2022-08-11T17:56:45;5.35;;;1.00;;
23052;SDS011;11694;-36.632;-64.318;2022-08-11T17:59:32;4.53;;;0.85;;
23052;SDS011;11694;-36.632;-64.318;2022-08-11T18:02:42;4.33;;;0.60;;
23052;SDS011;11694;-36.632;-64.318;2022-08-11T18:05:28;8.32;;;1.38;;
23052;SDS011;11694;-36.632;-64.318;2022-08-11T18:07:59;5.55;;;0.60;;
23052;SDS011;11694;-36.632;-64.318;2022-08-11T18:10:49;12.23;;;1.03;;
23052;SDS011;11694;-36.632;-64.318;2022-08-11T18:13:36;20.17;;;2.37;;
23052;SDS011;11694;-36.632;-64.318;2022-08-11T18:16:23;13.63;;;1.80;;
23052;SDS011;11694;-36.632;-64.318;2022-08-11T18:19:09;6.50;;;0.63;;
23052;SDS011;11694;-36.632;-64.318;2022-08-11T18:21:56;27.53;;;2.47;;
23052;SDS011;11694;-36.632;-64.318;2022-08-11T18:24:54;4.33;;;0.70;;
23052;SDS011;11694;-36.632;-64.318;2022-08-11T18:27:58;9.20;;;1.40;;
23052;SDS011;11694;-36.632;-64.318;2022-08-11T18:30:49;7.53;;;1.00;;
23052;SDS011;11694;-36.632;-64.318;2022-08-11T18:33:54;47.03;;;6.50;;
23052;SDS011;11694;-36.632;-64.318;2022-08-11T18:36:41;19.53;;;2.20;;
23052;SDS011;11694;-36.632;-64.318;2022-08-11T18:39:33;3.60;;;0.87;;
23052;SDS011;11694;-36.632;-64.318;2022-08-11T18:42:20;36.80;;;4.70;;
23052;SDS011;11694;-36.632;-64.318;2022-08-11T18:45:08;12.13;;;1.37;;
23052;SDS011;11694;-36.632;-64.318;2022-08-11T18:48:03;15.73;;;2.30;;
23052;SDS011;11694;-36.632;-64.318;2022-08-11T18:50:54;6.40;;;0.83;;
23052;SDS011;11694;-36.632;-64.318;2022-08-11T18:53:42;16.67;;;1.87;;
23052;SDS011;11694;-36.632;-64.318;2022-08-11T18:56:30;3.87;;;0.83;;
23052;SDS011;11694;-36.632;-64.318;2022-08-11T18:59:17;16.60;;;1.63;;